sensor_id;sensor_type;location;lat;lon;timestamp;P1;durP1;ratioP1;P2;durP2;ratioP2
56073;SDS011;41950;55.840;37.442;2023-04-03T00:02:08;13.30;;;10.60;;
56073;SDS011;41950;55.840;37.442;2023-04-03T00:04:34;12.48;;;10.98;;
56073;SDS011;41950;55.840;37.442;2023-04-03T00:06:59;11.88;;;10.10;;
56073;SDS011;41950;55.840;37.442;2023-04-03T00:09:25;11.63;;;10.38;;
56073;SDS011;41950;55.840;37.442;2023-04-03T00:11:51;10.95;;;9.75;;
56073;SDS011;41950;55.840;37.442;2023-04-03T00:14:17;11.30;;;9.25;;
56073;SDS011;41950;55.840;37.442;2023-04-03T00:16:42;14.02;;;10.52;;
56073;SDS011;41950;55.840;37.442;2023-04-03T00:19:08;12.52;;;11.23;;
56073;SDS011;41950;55.840;37.442;2023-04-03T00:21:36;10.35;;;9.25;;
56073;SDS011;41950;55.840;37.442;2023-04-03T00:24:02;11.30;;;9.82;;
56073;SDS011;41950;55.840;37.442;2023-04-03T00:26:28;12.57;;;10.80;;
56073;SDS011;41950;55.840;37.442;2023-04-03T00:28:54;11.93;;;10.18;;
56073;SDS011;41950;55.840;37.442;2023-04-03T00:31:19;13.52;;;10.25;;
56073;SDS011;41950;55.840;37.442;2023-04-03T00:33:45;11.77;;;10.55;;
56073;SDS011;41950;55.840;37.442;2023-04-03T00:36:12;12.38;;;10.48;;
56073;SDS011;41950;55.840;37.442;2023-04-03T00:38:39;13.82;;;11.85;;
56073;SDS011;41950;55.840;37.442;2023-04-03T00:41:06;12.75;;;11.40;;
56073;SDS011;41950;55.840;37.442;2023-04-03T00:43:32;13.07;;;11.32;;
56073;SDS011;41950;55.840;37.442;2023-04-03T00:45:58;12.63;;;10.82;;
56073;SDS011;41950;55.840;37.442;2023-04-03T00:48:32;13.50;;;11.70;;
56073;SDS011;41950;55.840;37.442;2023-04-03T00:51:03;13.70;;;11.02;;
56073;SDS011;41950;55.840;37.442;2023-04-03T00:53:54;14.35;;;11.80;;
56073;SDS011;41950;55.840;37.442;2023-04-03T00:56:21;13.25;;;11.68;;
56073;SDS011;41950;55.840;37.442;2023-04-03T00:58:57;15.32;;;12.68;;
56073;SDS011;41950;55.840;37.442;2023-04-03T01:01:35;13.73;;;12.32;;
56073;SDS011;41950;55.840;37.442;2023-04-03T01:04:03;15.18;;;13.63;;
56073;SDS011;41950;55.840;37.442;2023-04-03T01:06:34;15.95;;;13.63;;
56073;SDS011;41950;55.840;37.442;2023-04-03T01:09:03;16.10;;;12.93;;
56073;SDS011;41950;55.840;37.442;2023-04-03T01:11:30;14.75;;;13.13;;
56073;SDS011;41950;55.840;37.442;2023-04-03T01:13:58;13.45;;;12.05;;
56073;SDS011;41950;55.840;37.442;2023-04-03T01:16:23;14.55;;;12.32;;
56073;SDS011;41950;55.840;37.442;2023-04-03T01:18:50;13.90;;;12.00;;
56073;SDS011;41950;55.840;37.442;2023-04-03T01:23:58;13.07;;;11.77;;
56073;SDS011;41950;55.840;37.442;2023-04-03T01:26:28;14.27;;;12.13;;
56073;SDS011;41950;55.840;37.442;2023-04-03T01:28:55;13.55;;;11.88;;
56073;SDS011;41950;55.840;37.442;2023-04-03T01:34:06;12.30;;;11.00;;
56073;SDS011;41950;55.840;37.442;2023-04-03T01:36:33;14.35;;;10.40;;
56073;SDS011;41950;55.840;37.442;2023-04-03T01:38:59;13.05;;;11.02;;
56073;SDS011;41950;55.840;37.442;2023-04-03T01:41:25;14.88;;;10.40;;
56073;SDS011;41950;55.840;37.442;2023-04-03T01:43:52;14.30;;;11.07;;
56073;SDS011;41950;55.840;37.442;2023-04-03T01:46:18;12.80;;;10.63;;
56073;SDS011;41950;55.840;37.442;2023-04-03T01:48:45;12.00;;;10.15;;
56073;SDS011;41950;55.840;37.442;2023-04-03T01:51:11;12.32;;;10.20;;
56073;SDS011;41950;55.840;37.442;2023-04-03T01:53:37;12.57;;;10.98;;
56073;SDS011;41950;55.840;37.442;2023-04-03T01:56:04;12.43;;;10.55;;
56073;SDS011;41950;55.840;37.442;2023-04-03T01:58:30;13.45;;;11.55;;
56073;SDS011;41950;55.840;37.442;2023-04-03T02:00:59;14.00;;;12.50;;
56073;SDS011;41950;55.840;37.442;2023-04-03T02:03:25;14.05;;;12.63;;
56073;SDS011;41950;55.840;37.442;2023-04-03T02:05:51;13.55;;;12.18;;
56073;SDS011;41950;55.840;37.442;2023-04-03T02:08:23;13.48;;;11.55;;
56073;SDS011;41950;55.840;37.442;2023-04-03T02:10:51;13.40;;;12.00;;
56073;SDS011;41950;55.840;37.442;2023-04-03T02:13:17;13.95;;;12.48;;
56073;SDS011;41950;55.840;37.442;2023-04-03T02:15:43;15.70;;;12.27;;
56073;SDS011;41950;55.840;37.442;2023-04-03T02:18:10;13.43;;;10.70;;
56073;SDS011;41950;55.840;37.442;2023-04-03T02:20:36;14.48;;;11.77;;
56073;SDS011;41950;55.840;37.442;2023-04-03T02:23:04;14.45;;;11.73;;
56073;SDS011;41950;55.840;37.442;2023-04-03T02:25:32;13.70;;;11.10;;
56073;SDS011;41950;55.840;37.442;2023-04-03T02:27:59;13.20;;;11.50;;
56073;SDS011;41950;55.840;37.442;2023-04-03T02:30:25;14.88;;;12.93;;
56073;SDS011;41950;55.840;37.442;2023-04-03T02:32:51;14.68;;;13.10;;
56073;SDS011;41950;55.840;37.442;2023-04-03T02:35:17;15.52;;;13.20;;
56073;SDS011;41950;55.840;37.442;2023-04-03T02:37:43;16.80;;;13.20;;
56073;SDS011;41950;55.840;37.442;2023-04-03T02:40:08;13.98;;;12.30;;
56073;SDS011;41950;55.840;37.442;2023-04-03T02:42:38;15.38;;;12.82;;
56073;SDS011;41950;55.840;37.442;2023-04-03T02:45:04;14.70;;;12.40;;
56073;SDS011;41950;55.840;37.442;2023-04-03T02:47:31;17.23;;;14.45;;
56073;SDS011;41950;55.840;37.442;2023-04-03T02:50:07;15.98;;;13.80;;
56073;SDS011;41950;55.840;37.442;2023-04-03T02:52:36;16.25;;;14.45;;
56073;SDS011;41950;55.840;37.442;2023-04-03T02:55:04;15.88;;;14.13;;
56073;SDS011;41950;55.840;37.442;2023-04-03T02:57:30;14.38;;;12.52;;
56073;SDS011;41950;55.840;37.442;2023-04-03T02:59:56;18.20;;;15.52;;
56073;SDS011;41950;55.840;37.442;2023-04-03T03:02:22;19.02;;;15.60;;
56073;SDS011;41950;55.840;37.442;2023-04-03T03:04:48;20.67;;;15.65;;
56073;SDS011;41950;55.840;37.442;2023-04-03T03:07:14;16.77;;;14.98;;
56073;SDS011;41950;55.840;37.442;2023-04-03T03:09:40;15.85;;;13.50;;
56073;SDS011;41950;55.840;37.442;2023-04-03T03:12:07;17.65;;;13.98;;
56073;SDS011;41950;55.840;37.442;2023-04-03T03:14:33;15.57;;;13.88;;
56073;SDS011;41950;55.840;37.442;2023-04-03T03:16:59;19.42;;;12.95;;
56073;SDS011;41950;55.840;37.442;2023-04-03T03:19:25;15.45;;;12.48;;
56073;SDS011;41950;55.840;37.442;2023-04-03T03:21:51;16.08;;;12.43;;
56073;SDS011;41950;55.840;37.442;2023-04-03T03:24:17;13.75;;;12.10;;
56073;SDS011;41950;55.840;37.442;2023-04-03T03:26:47;15.07;;;12.52;;
56073;SDS011;41950;55.840;37.442;2023-04-03T03:29:13;15.18;;;12.85;;
56073;SDS011;41950;55.840;37.442;2023-04-03T03:31:38;14.70;;;11.85;;
56073;SDS011;41950;55.840;37.442;2023-04-03T03:34:04;13.55;;;11.20;;
56073;SDS011;41950;55.840;37.442;2023-04-03T03:36:30;16.00;;;12.13;;
56073;SDS011;41950;55.840;37.442;2023-04-03T03:38:57;14.45;;;11.15;;
56073;SDS011;41950;55.840;37.442;2023-04-03T03:41:23;13.73;;;10.70;;
56073;SDS011;41950;55.840;37.442;2023-04-03T03:43:51;14.75;;;10.52;;
56073;SDS011;41950;55.840;37.442;2023-04-03T03:46:17;13.98;;;9.52;;
56073;SDS011;41950;55.840;37.442;2023-04-03T03:48:43;14.23;;;10.15;;
56073;SDS011;41950;55.840;37.442;2023-04-03T03:51:08;15.20;;;9.95;;
56073;SDS011;41950;55.840;37.442;2023-04-03T03:53:34;13.88;;;10.15;;
56073;SDS011;41950;55.840;37.442;2023-04-03T03:56:00;15.82;;;10.43;;
56073;SDS011;41950;55.840;37.442;2023-04-03T03:58:26;13.05;;;10.20;;
56073;SDS011;41950;55.840;37.442;2023-04-03T04:00:51;13.90;;;9.57;;
56073;SDS011;41950;55.840;37.442;2023-04-03T04:03:18;11.60;;;8.80;;
56073;SDS011;41950;55.840;37.442;2023-04-03T04:05:44;11.15;;;9.48;;
56073;SDS011;41950;55.840;37.442;2023-04-03T04:08:10;13.07;;;9.38;;
56073;SDS011;41950;55.840;37.442;2023-04-03T04:10:39;12.80;;;9.98;;
56073;SDS011;41950;55.840;37.442;2023-04-03T04:13:06;11.30;;;9.70;;
56073;SDS011;41950;55.840;37.442;2023-04-03T04:15:32;11.52;;;9.73;;
56073;SDS011;41950;55.840;37.442;2023-04-03T04:17:59;12.77;;;9.70;;
56073;SDS011;41950;55.840;37.442;2023-04-03T04:20:26;13.70;;;10.15;;
56073;SDS011;41950;55.840;37.442;2023-04-03T04:22:53;11.75;;;9.70;;
56073;SDS011;41950;55.840;37.442;2023-04-03T04:25:19;13.10;;;10.10;;
56073;SDS011;41950;55.840;37.442;2023-04-03T04:27:46;14.73;;;11.13;;
56073;SDS011;41950;55.840;37.442;2023-04-03T04:30:13;12.52;;;9.90;;
56073;SDS011;41950;55.840;37.442;2023-04-03T04:32:39;14.90;;;10.63;;
56073;SDS011;41950;55.840;37.442;2023-04-03T04:35:05;14.70;;;11.35;;
56073;SDS011;41950;55.840;37.442;2023-04-03T04:37:33;14.70;;;10.50;;
56073;SDS011;41950;55.840;37.442;2023-04-03T04:39:59;13.77;;;11.02;;
56073;SDS011;41950;55.840;37.442;2023-04-03T04:42:25;14.50;;;10.93;;
56073;SDS011;41950;55.840;37.442;2023-04-03T04:44:52;12.98;;;10.32;;
56073;SDS011;41950;55.840;37.442;2023-04-03T04:47:18;12.48;;;9.60;;
56073;SDS011;41950;55.840;37.442;2023-04-03T04:49:43;16.05;;;11.35;;
56073;SDS011;41950;55.840;37.442;2023-04-03T04:52:09;13.30;;;11.35;;
56073;SDS011;41950;55.840;37.442;2023-04-03T04:54:35;14.68;;;11.23;;
56073;SDS011;41950;55.840;37.442;2023-04-03T04:57:02;14.32;;;11.43;;
56073;SDS011;41950;55.840;37.442;2023-04-03T04:59:28;15.77;;;11.68;;
56073;SDS011;41950;55.840;37.442;2023-04-03T05:01:55;13.85;;;12.10;;
56073;SDS011;41950;55.840;37.442;2023-04-03T05:04:21;13.90;;;11.43;;
56073;SDS011;41950;55.840;37.442;2023-04-03T05:06:46;15.27;;;12.45;;
56073;SDS011;41950;55.840;37.442;2023-04-03T05:09:12;16.58;;;12.13;;
56073;SDS011;41950;55.840;37.442;2023-04-03T05:11:38;15.18;;;12.65;;
56073;SDS011;41950;55.840;37.442;2023-04-03T05:14:04;16.77;;;11.70;;
56073;SDS011;41950;55.840;37.442;2023-04-03T05:16:33;17.42;;;12.80;;
56073;SDS011;41950;55.840;37.442;2023-04-03T05:19:00;15.43;;;11.13;;
56073;SDS011;41950;55.840;37.442;2023-04-03T05:21:26;15.70;;;11.57;;
56073;SDS011;41950;55.840;37.442;2023-04-03T05:23:57;15.25;;;12.07;;
56073;SDS011;41950;55.840;37.442;2023-04-03T05:26:23;14.68;;;12.25;;
56073;SDS011;41950;55.840;37.442;2023-04-03T05:28:50;16.85;;;12.13;;
56073;SDS011;41950;55.840;37.442;2023-04-03T05:31:16;18.35;;;13.65;;
56073;SDS011;41950;55.840;37.442;2023-04-03T05:33:42;14.05;;;12.27;;
56073;SDS011;41950;55.840;37.442;2023-04-03T05:36:09;14.55;;;12.30;;
56073;SDS011;41950;55.840;37.442;2023-04-03T05:38:35;16.27;;;12.30;;
56073;SDS011;41950;55.840;37.442;2023-04-03T05:41:01;14.95;;;12.82;;
56073;SDS011;41950;55.840;37.442;2023-04-03T05:43:27;16.20;;;12.80;;
56073;SDS011;41950;55.840;37.442;2023-04-03T05:45:52;17.35;;;13.15;;
56073;SDS011;41950;55.840;37.442;2023-04-03T05:48:19;15.30;;;12.93;;
56073;SDS011;41950;55.840;37.442;2023-04-03T05:50:46;18.23;;;13.40;;
56073;SDS011;41950;55.840;37.442;2023-04-03T05:53:15;15.00;;;13.23;;
56073;SDS011;41950;55.840;37.442;2023-04-03T05:55:50;15.73;;;12.80;;
56073;SDS011;41950;55.840;37.442;2023-04-03T05:58:15;15.70;;;11.77;;
56073;SDS011;41950;55.840;37.442;2023-04-03T06:00:43;18.15;;;13.02;;
56073;SDS011;41950;55.840;37.442;2023-04-03T06:03:12;15.00;;;11.65;;
56073;SDS011;41950;55.840;37.442;2023-04-03T06:05:40;13.60;;;11.80;;
56073;SDS011;41950;55.840;37.442;2023-04-03T06:08:06;16.23;;;13.10;;
56073;SDS011;41950;55.840;37.442;2023-04-03T06:10:34;14.90;;;12.05;;
56073;SDS011;41950;55.840;37.442;2023-04-03T06:13:01;15.10;;;12.38;;
56073;SDS011;41950;55.840;37.442;2023-04-03T06:15:27;14.23;;;11.82;;
56073;SDS011;41950;55.840;37.442;2023-04-03T06:17:53;14.68;;;12.45;;
56073;SDS011;41950;55.840;37.442;2023-04-03T06:20:20;15.20;;;12.63;;
56073;SDS011;41950;55.840;37.442;2023-04-03T06:22:48;17.42;;;12.63;;
56073;SDS011;41950;55.840;37.442;2023-04-03T06:25:14;13.90;;;12.30;;
56073;SDS011;41950;55.840;37.442;2023-04-03T06:27:42;12.25;;;10.23;;
56073;SDS011;41950;55.840;37.442;2023-04-03T06:30:09;11.30;;;10.10;;
56073;SDS011;41950;55.840;37.442;2023-04-03T06:32:37;15.07;;;10.73;;
56073;SDS011;41950;55.840;37.442;2023-04-03T06:35:04;15.10;;;10.35;;
56073;SDS011;41950;55.840;37.442;2023-04-03T06:37:32;14.82;;;10.70;;
56073;SDS011;41950;55.840;37.442;2023-04-03T06:39:59;13.93;;;10.60;;
56073;SDS011;41950;55.840;37.442;2023-04-03T06:42:46;13.55;;;10.50;;
56073;SDS011;41950;55.840;37.442;2023-04-03T06:45:13;13.02;;;10.25;;
56073;SDS011;41950;55.840;37.442;2023-04-03T06:47:40;16.38;;;10.68;;
56073;SDS011;41950;55.840;37.442;2023-04-03T06:50:06;14.73;;;10.48;;
56073;SDS011;41950;55.840;37.442;2023-04-03T06:52:33;14.40;;;10.18;;
56073;SDS011;41950;55.840;37.442;2023-04-03T06:54:59;15.50;;;10.68;;
56073;SDS011;41950;55.840;37.442;2023-04-03T06:57:25;15.52;;;10.55;;
56073;SDS011;41950;55.840;37.442;2023-04-03T06:59:51;18.80;;;11.75;;
56073;SDS011;41950;55.840;37.442;2023-04-03T07:02:17;16.48;;;11.68;;
56073;SDS011;41950;55.840;37.442;2023-04-03T07:04:42;13.95;;;10.57;;
56073;SDS011;41950;55.840;37.442;2023-04-03T07:07:08;17.55;;;10.52;;
56073;SDS011;41950;55.840;37.442;2023-04-03T07:09:34;17.48;;;11.27;;
56073;SDS011;41950;55.840;37.442;2023-04-03T07:11:59;16.27;;;10.77;;
56073;SDS011;41950;55.840;37.442;2023-04-03T07:14:25;18.02;;;11.48;;
56073;SDS011;41950;55.840;37.442;2023-04-03T07:16:51;16.70;;;10.95;;
56073;SDS011;41950;55.840;37.442;2023-04-03T07:19:17;18.77;;;11.57;;
56073;SDS011;41950;55.840;37.442;2023-04-03T07:21:43;14.13;;;12.07;;
56073;SDS011;41950;55.840;37.442;2023-04-03T07:24:10;15.32;;;10.35;;
56073;SDS011;41950;55.840;37.442;2023-04-03T07:26:36;13.60;;;10.30;;
56073;SDS011;41950;55.840;37.442;2023-04-03T07:29:02;15.52;;;10.73;;
56073;SDS011;41950;55.840;37.442;2023-04-03T07:31:28;18.38;;;11.00;;
56073;SDS011;41950;55.840;37.442;2023-04-03T07:33:53;16.52;;;12.18;;
56073;SDS011;41950;55.840;37.442;2023-04-03T07:36:20;15.13;;;10.57;;
56073;SDS011;41950;55.840;37.442;2023-04-03T07:38:47;15.90;;;11.27;;
56073;SDS011;41950;55.840;37.442;2023-04-03T07:41:14;17.35;;;11.52;;
56073;SDS011;41950;55.840;37.442;2023-04-03T07:43:43;16.13;;;10.98;;
56073;SDS011;41950;55.840;37.442;2023-04-03T07:46:10;17.13;;;10.75;;
56073;SDS011;41950;55.840;37.442;2023-04-03T07:48:36;17.40;;;10.35;;
56073;SDS011;41950;55.840;37.442;2023-04-03T07:51:04;16.25;;;11.15;;
56073;SDS011;41950;55.840;37.442;2023-04-03T07:53:31;17.15;;;10.82;;
56073;SDS011;41950;55.840;37.442;2023-04-03T07:55:58;15.27;;;10.00;;
56073;SDS011;41950;55.840;37.442;2023-04-03T07:58:24;18.83;;;11.27;;
56073;SDS011;41950;55.840;37.442;2023-04-03T08:00:50;17.48;;;11.02;;
56073;SDS011;41950;55.840;37.442;2023-04-03T08:03:18;13.15;;;9.85;;
56073;SDS011;41950;55.840;37.442;2023-04-03T08:05:46;19.13;;;11.10;;
56073;SDS011;41950;55.840;37.442;2023-04-03T08:08:14;16.55;;;11.10;;
56073;SDS011;41950;55.840;37.442;2023-04-03T08:10:42;13.20;;;9.52;;
56073;SDS011;41950;55.840;37.442;2023-04-03T08:13:09;14.70;;;11.02;;
56073;SDS011;41950;55.840;37.442;2023-04-03T08:15:35;15.05;;;10.73;;
56073;SDS011;41950;55.840;37.442;2023-04-03T08:18:03;16.85;;;11.48;;
56073;SDS011;41950;55.840;37.442;2023-04-03T08:20:30;14.35;;;10.00;;
56073;SDS011;41950;55.840;37.442;2023-04-03T08:22:56;17.60;;;11.18;;
56073;SDS011;41950;55.840;37.442;2023-04-03T08:25:22;19.90;;;11.75;;
56073;SDS011;41950;55.840;37.442;2023-04-03T08:27:48;14.90;;;10.98;;
56073;SDS011;41950;55.840;37.442;2023-04-03T08:30:14;17.98;;;11.52;;
56073;SDS011;41950;55.840;37.442;2023-04-03T08:32:40;19.48;;;10.77;;
56073;SDS011;41950;55.840;37.442;2023-04-03T08:35:07;17.30;;;11.57;;
56073;SDS011;41950;55.840;37.442;2023-04-03T08:37:37;16.35;;;11.45;;
56073;SDS011;41950;55.840;37.442;2023-04-03T08:40:04;19.92;;;11.98;;
56073;SDS011;41950;55.840;37.442;2023-04-03T08:53:23;15.77;;;11.30;;
56073;SDS011;41950;55.840;37.442;2023-04-03T08:55:53;18.10;;;11.63;;
56073;SDS011;41950;55.840;37.442;2023-04-03T08:58:25;17.35;;;12.93;;
56073;SDS011;41950;55.840;37.442;2023-04-03T09:01:04;19.00;;;11.73;;
56073;SDS011;41950;55.840;37.442;2023-04-03T09:03:38;16.63;;;11.93;;
56073;SDS011;41950;55.840;37.442;2023-04-03T09:08:49;20.05;;;12.13;;
56073;SDS011;41950;55.840;37.442;2023-04-03T09:11:51;19.23;;;13.27;;
56073;SDS011;41950;55.840;37.442;2023-04-03T09:22:53;18.58;;;13.13;;
56073;SDS011;41950;55.840;37.442;2023-04-03T09:25:25;17.05;;;13.15;;
56073;SDS011;41950;55.840;37.442;2023-04-03T09:27:59;19.38;;;13.65;;
56073;SDS011;41950;55.840;37.442;2023-04-03T09:30:27;18.25;;;14.32;;
56073;SDS011;41950;55.840;37.442;2023-04-03T09:32:54;21.83;;;13.88;;
56073;SDS011;41950;55.840;37.442;2023-04-03T09:35:28;18.65;;;13.50;;
56073;SDS011;41950;55.840;37.442;2023-04-03T09:40:40;18.98;;;13.20;;
56073;SDS011;41950;55.840;37.442;2023-04-03T09:46:15;18.88;;;12.43;;
56073;SDS011;41950;55.840;37.442;2023-04-03T09:48:55;18.73;;;13.27;;
56073;SDS011;41950;55.840;37.442;2023-04-03T09:51:24;18.60;;;12.70;;
56073;SDS011;41950;55.840;37.442;2023-04-03T09:53:54;17.60;;;13.25;;
56073;SDS011;41950;55.840;37.442;2023-04-03T09:56:27;20.05;;;13.13;;
56073;SDS011;41950;55.840;37.442;2023-04-03T10:06:37;15.55;;;12.15;;
56073;SDS011;41950;55.840;37.442;2023-04-03T10:09:14;19.08;;;12.30;;
56073;SDS011;41950;55.840;37.442;2023-04-03T10:12:01;18.67;;;12.88;;
56073;SDS011;41950;55.840;37.442;2023-04-03T10:14:37;18.42;;;12.82;;
56073;SDS011;41950;55.840;37.442;2023-04-03T10:25:20;18.20;;;12.27;;
56073;SDS011;41950;55.840;37.442;2023-04-03T10:30:30;15.82;;;11.40;;
56073;SDS011;41950;55.840;37.442;2023-04-03T10:35:53;17.08;;;11.80;;
56073;SDS011;41950;55.840;37.442;2023-04-03T10:41:12;13.25;;;11.20;;
56073;SDS011;41950;55.840;37.442;2023-04-03T10:49:33;16.77;;;10.55;;
56073;SDS011;41950;55.840;37.442;2023-04-03T10:52:36;14.50;;;9.98;;
56073;SDS011;41950;55.840;37.442;2023-04-03T10:57:47;16.83;;;10.50;;
56073;SDS011;41950;55.840;37.442;2023-04-03T11:00:21;14.52;;;10.82;;
56073;SDS011;41950;55.840;37.442;2023-04-03T11:02:57;18.20;;;11.25;;
56073;SDS011;41950;55.840;37.442;2023-04-03T11:08:04;17.95;;;11.05;;
56073;SDS011;41950;55.840;37.442;2023-04-03T11:10:40;14.85;;;9.48;;
56073;SDS011;41950;55.840;37.442;2023-04-03T11:13:21;13.93;;;9.18;;
56073;SDS011;41950;55.840;37.442;2023-04-03T11:15:54;12.77;;;8.80;;
56073;SDS011;41950;55.840;37.442;2023-04-03T11:18:34;13.25;;;7.93;;
56073;SDS011;41950;55.840;37.442;2023-04-03T11:21:20;15.32;;;9.55;;
56073;SDS011;41950;55.840;37.442;2023-04-03T11:23:51;18.48;;;10.70;;
56073;SDS011;41950;55.840;37.442;2023-04-03T11:26:21;16.75;;;10.82;;
56073;SDS011;41950;55.840;37.442;2023-04-03T11:28:58;17.15;;;10.05;;
56073;SDS011;41950;55.840;37.442;2023-04-03T11:36:59;13.82;;;9.15;;
56073;SDS011;41950;55.840;37.442;2023-04-03T11:39:28;13.27;;;8.73;;
56073;SDS011;41950;55.840;37.442;2023-04-03T11:46:06;10.90;;;8.15;;
56073;SDS011;41950;55.840;37.442;2023-04-03T11:48:06;14.30;;;8.50;;
56073;SDS011;41950;55.840;37.442;2023-04-03T11:50:57;12.43;;;8.55;;
56073;SDS011;41950;55.840;37.442;2023-04-03T11:53:39;14.30;;;7.72;;
56073;SDS011;41950;55.840;37.442;2023-04-03T12:01:47;12.35;;;6.88;;
56073;SDS011;41950;55.840;37.442;2023-04-03T12:04:19;13.10;;;7.87;;
56073;SDS011;41950;55.840;37.442;2023-04-03T12:15:11;11.38;;;6.97;;
56073;SDS011;41950;55.840;37.442;2023-04-03T12:17:46;16.30;;;8.35;;
56073;SDS011;41950;55.840;37.442;2023-04-03T12:23:27;13.50;;;8.25;;
56073;SDS011;41950;55.840;37.442;2023-04-03T12:28:50;13.32;;;8.38;;
56073;SDS011;41950;55.840;37.442;2023-04-03T12:31:19;14.60;;;8.75;;
56073;SDS011;41950;55.840;37.442;2023-04-03T12:33:52;12.68;;;8.68;;
56073;SDS011;41950;55.840;37.442;2023-04-03T12:42:18;13.98;;;9.02;;
56073;SDS011;41950;55.840;37.442;2023-04-03T12:47:33;11.07;;;8.77;;
56073;SDS011;41950;55.840;37.442;2023-04-03T12:50:03;13.98;;;9.18;;
56073;SDS011;41950;55.840;37.442;2023-04-03T12:53:06;14.73;;;9.25;;
56073;SDS011;41950;55.840;37.442;2023-04-03T12:55:37;13.10;;;8.90;;
56073;SDS011;41950;55.840;37.442;2023-04-03T12:58:25;15.68;;;9.32;;
56073;SDS011;41950;55.840;37.442;2023-04-03T13:03:53;12.50;;;9.23;;
56073;SDS011;41950;55.840;37.442;2023-04-03T13:08:54;14.25;;;9.63;;
56073;SDS011;41950;55.840;37.442;2023-04-03T13:11:23;15.80;;;9.93;;
56073;SDS011;41950;55.840;37.442;2023-04-03T13:16:56;14.48;;;9.63;;
56073;SDS011;41950;55.840;37.442;2023-04-03T13:19:44;14.35;;;9.48;;
56073;SDS011;41950;55.840;37.442;2023-04-03T13:24:49;12.93;;;7.60;;
56073;SDS011;41950;55.840;37.442;2023-04-03T13:27:17;14.35;;;8.40;;
56073;SDS011;41950;55.840;37.442;2023-04-03T13:29:43;13.95;;;9.30;;
56073;SDS011;41950;55.840;37.442;2023-04-03T13:32:17;13.25;;;8.23;;
56073;SDS011;41950;55.840;37.442;2023-04-03T13:34:48;13.05;;;8.10;;
56073;SDS011;41950;55.840;37.442;2023-04-03T13:40:03;12.38;;;7.10;;
56073;SDS011;41950;55.840;37.442;2023-04-03T13:42:39;7.97;;;5.60;;
56073;SDS011;41950;55.840;37.442;2023-04-03T13:48:10;11.63;;;6.90;;
56073;SDS011;41950;55.840;37.442;2023-04-03T13:50:53;11.27;;;6.13;;
56073;SDS011;41950;55.840;37.442;2023-04-03T13:53:25;7.93;;;5.22;;
56073;SDS011;41950;55.840;37.442;2023-04-03T13:58:25;9.07;;;5.65;;
56073;SDS011;41950;55.840;37.442;2023-04-03T14:03:42;10.30;;;6.38;;
56073;SDS011;41950;55.840;37.442;2023-04-03T14:06:26;8.57;;;6.05;;
56073;SDS011;41950;55.840;37.442;2023-04-03T14:08:53;9.95;;;5.80;;
56073;SDS011;41950;55.840;37.442;2023-04-03T14:11:20;11.57;;;6.25;;
56073;SDS011;41950;55.840;37.442;2023-04-03T14:13:49;12.18;;;6.72;;
56073;SDS011;41950;55.840;37.442;2023-04-03T14:16:17;11.48;;;6.97;;
56073;SDS011;41950;55.840;37.442;2023-04-03T14:18:46;9.43;;;6.55;;
56073;SDS011;41950;55.840;37.442;2023-04-03T14:21:17;9.82;;;6.57;;
56073;SDS011;41950;55.840;37.442;2023-04-03T14:23:46;13.32;;;7.30;;
56073;SDS011;41950;55.840;37.442;2023-04-03T14:26:17;10.48;;;6.97;;
56073;SDS011;41950;55.840;37.442;2023-04-03T14:28:46;11.20;;;7.32;;
56073;SDS011;41950;55.840;37.442;2023-04-03T14:31:15;11.15;;;6.90;;
56073;SDS011;41950;55.840;37.442;2023-04-03T14:33:43;12.25;;;7.47;;
56073;SDS011;41950;55.840;37.442;2023-04-03T14:36:13;13.32;;;6.95;;
56073;SDS011;41950;55.840;37.442;2023-04-03T14:38:44;11.68;;;7.30;;
56073;SDS011;41950;55.840;37.442;2023-04-03T14:41:12;11.38;;;7.55;;
56073;SDS011;41950;55.840;37.442;2023-04-03T14:43:40;12.38;;;7.78;;
56073;SDS011;41950;55.840;37.442;2023-04-03T14:46:09;12.23;;;7.88;;
56073;SDS011;41950;55.840;37.442;2023-04-03T14:48:43;10.32;;;8.18;;
56073;SDS011;41950;55.840;37.442;2023-04-03T14:51:11;11.05;;;7.60;;
56073;SDS011;41950;55.840;37.442;2023-04-03T14:53:38;15.77;;;8.57;;
56073;SDS011;41950;55.840;37.442;2023-04-03T14:56:16;10.38;;;8.73;;
56073;SDS011;41950;55.840;37.442;2023-04-03T14:58:55;11.95;;;7.75;;
56073;SDS011;41950;55.840;37.442;2023-04-03T15:01:23;12.07;;;7.75;;
56073;SDS011;41950;55.840;37.442;2023-04-03T15:03:51;10.57;;;7.65;;
56073;SDS011;41950;55.840;37.442;2023-04-03T15:06:17;11.35;;;8.27;;
56073;SDS011;41950;55.840;37.442;2023-04-03T15:08:46;10.38;;;7.93;;
56073;SDS011;41950;55.840;37.442;2023-04-03T15:11:12;12.90;;;8.45;;
56073;SDS011;41950;55.840;37.442;2023-04-03T15:13:40;9.13;;;7.78;;
56073;SDS011;41950;55.840;37.442;2023-04-03T15:16:10;14.95;;;8.80;;
56073;SDS011;41950;55.840;37.442;2023-04-03T15:18:40;14.48;;;8.68;;
56073;SDS011;41950;55.840;37.442;2023-04-03T15:21:06;11.23;;;8.32;;
56073;SDS011;41950;55.840;37.442;2023-04-03T15:23:32;11.80;;;8.52;;
56073;SDS011;41950;55.840;37.442;2023-04-03T15:25:57;13.68;;;8.77;;
56073;SDS011;41950;55.840;37.442;2023-04-03T15:28:30;14.93;;;9.25;;
56073;SDS011;41950;55.840;37.442;2023-04-03T15:31:00;13.65;;;8.60;;
56073;SDS011;41950;55.840;37.442;2023-04-03T15:33:26;11.50;;;8.20;;
56073;SDS011;41950;55.840;37.442;2023-04-03T15:35:54;15.93;;;9.77;;
56073;SDS011;41950;55.840;37.442;2023-04-03T15:38:21;13.60;;;9.05;;
56073;SDS011;41950;55.840;37.442;2023-04-03T15:40:52;12.88;;;9.50;;
56073;SDS011;41950;55.840;37.442;2023-04-03T15:43:20;13.50;;;9.40;;
56073;SDS011;41950;55.840;37.442;2023-04-03T15:45:48;13.73;;;9.20;;
56073;SDS011;41950;55.840;37.442;2023-04-03T15:48:15;13.90;;;8.65;;
56073;SDS011;41950;55.840;37.442;2023-04-03T15:50:41;12.75;;;9.00;;
56073;SDS011;41950;55.840;37.442;2023-04-03T15:53:07;14.98;;;9.45;;
56073;SDS011;41950;55.840;37.442;2023-04-03T15:55:36;11.50;;;8.63;;
56073;SDS011;41950;55.840;37.442;2023-04-03T15:58:24;12.75;;;8.80;;
56073;SDS011;41950;55.840;37.442;2023-04-03T16:00:51;14.23;;;9.18;;
56073;SDS011;41950;55.840;37.442;2023-04-03T16:03:18;11.98;;;8.75;;
56073;SDS011;41950;55.840;37.442;2023-04-03T16:05:45;14.00;;;9.23;;
56073;SDS011;41950;55.840;37.442;2023-04-03T16:08:11;11.68;;;8.52;;
56073;SDS011;41950;55.840;37.442;2023-04-03T16:10:39;13.20;;;9.25;;
56073;SDS011;41950;55.840;37.442;2023-04-03T16:13:06;13.15;;;9.80;;
56073;SDS011;41950;55.840;37.442;2023-04-03T16:15:32;15.05;;;9.80;;
56073;SDS011;41950;55.840;37.442;2023-04-03T16:17:59;11.68;;;9.73;;
56073;SDS011;41950;55.840;37.442;2023-04-03T16:20:26;17.10;;;10.52;;
56073;SDS011;41950;55.840;37.442;2023-04-03T16:22:53;15.32;;;10.73;;
56073;SDS011;41950;55.840;37.442;2023-04-03T16:25:19;15.57;;;11.15;;
56073;SDS011;41950;55.840;37.442;2023-04-03T16:27:46;15.57;;;10.70;;
56073;SDS011;41950;55.840;37.442;2023-04-03T16:30:12;15.77;;;11.27;;
56073;SDS011;41950;55.840;37.442;2023-04-03T16:32:39;14.82;;;11.00;;